createdAt,value
2018-09-17T00:01:42.390Z,98643.04
2018-09-17T00:04:45.477Z,98644.44
2018-09-17T00:07:48.531Z,98637.44
2018-09-17T00:10:51.562Z,98641.33
2018-09-17T00:13:54.606Z,98631.63
2018-09-17T00:16:57.634Z,98631.38
2018-09-17T00:20:00.698Z,98632.22
2018-09-17T00:23:03.767Z,98635.84
2018-09-17T00:26:06.839Z,98635.62
2018-09-17T00:29:09.916Z,98626.17
2018-09-17T00:32:12.954Z,98627.77
2018-09-17T00:35:16.002Z,98626.41
2018-09-17T00:38:19.084Z,98619.20
2018-09-17T00:41:22.134Z,98619.83
2018-09-17T00:44:25.181Z,98617.89
2018-09-17T00:47:33.946Z,98618.50
2018-09-17T00:50:36.999Z,98624.44
2018-09-17T00:53:40.098Z,98622.48
2018-09-17T00:56:43.142Z,98622.56
2018-09-17T00:59:46.211Z,98629.81
2018-09-17T01:02:49.261Z,98621.38
2018-09-17T01:05:52.327Z,98626.53
2018-09-17T01:08:55.385Z,98620.91
2018-09-17T01:11:58.431Z,98623.17
2018-09-17T01:15:01.513Z,98620.30
2018-09-17T01:18:04.564Z,98623.33
2018-09-17T01:21:07.678Z,98623.64
2018-09-17T01:24:10.728Z,98626.10
2018-09-17T01:27:13.742Z,98620.73
2018-09-17T01:30:16.889Z,98627.02
2018-09-17T01:33:19.898Z,98615.93
2018-09-17T01:36:22.958Z,98618.91
2018-09-17T01:39:26.035Z,98620.77
2018-09-17T01:42:29.039Z,98617.06
2018-09-17T01:45:32.046Z,98617.14
2018-09-17T01:48:35.046Z,98619.57
2018-09-17T01:51:38.053Z,98622.58
2018-09-17T01:54:41.071Z,98623.34
2018-09-17T01:57:44.069Z,98622.27
2018-09-17T02:00:47.182Z,98618.01
2018-09-17T02:03:50.182Z,98623.42
2018-09-17T02:06:53.208Z,98621.08
2018-09-17T02:09:56.263Z,98619.45
2018-09-17T02:12:59.256Z,98624.38
2018-09-17T02:16:02.337Z,98622.48
2018-09-17T02:19:05.433Z,98628.58
2018-09-17T02:22:09.193Z,98623.73
2018-09-17T02:25:12.198Z,98632.91
2018-09-17T02:28:15.190Z,98633.97
2018-09-17T02:31:18.283Z,98634.58
2018-09-17T02:34:21.271Z,98636.45
2018-09-17T02:37:24.282Z,98634.56
2018-09-17T02:40:27.363Z,98636.66
2018-09-17T02:43:30.417Z,98632.98
2018-09-17T02:46:33.424Z,98636.80
2018-09-17T02:49:36.422Z,98639.20
2018-09-17T02:52:39.467Z,98634.34
2018-09-17T02:55:42.498Z,98639.78
2018-09-17T02:58:45.577Z,98643.88
2018-09-17T03:01:48.574Z,98634.41
2018-09-17T03:04:51.599Z,98641.14
2018-09-17T03:07:54.678Z,98642.48
2018-09-17T03:10:57.719Z,98638.45
2018-09-17T03:14:00.698Z,98644.66
2018-09-17T03:17:09.818Z,98642.01
2018-09-17T03:20:12.854Z,98645.95
2018-09-17T03:23:15.858Z,98648.22
2018-09-17T03:26:19.362Z,98657.66
2018-09-17T03:29:22.350Z,98653.13
2018-09-17T03:32:25.350Z,98655.84
2018-09-17T03:35:28.347Z,98654.48
2018-09-17T03:38:43.758Z,98664.38
2018-09-17T03:41:46.797Z,98665.52
2018-09-17T03:44:49.829Z,98663.59
2018-09-17T03:47:52.906Z,98668.48
2018-09-17T03:50:55.923Z,98673.30
2018-09-17T03:53:58.953Z,98668.48
2018-09-17T03:57:01.994Z,98676.56
2018-09-17T04:00:05.098Z,98676.86
2018-09-17T04:03:08.370Z,98688.16
2018-09-17T04:06:11.399Z,98687.88
2018-09-17T04:09:14.444Z,98691.91
2018-09-17T04:12:17.470Z,98688.98
2018-09-17T04:15:20.490Z,98701.91
2018-09-17T04:18:23.526Z,98699.47
2018-09-17T04:21:26.551Z,98701.64
2018-09-17T04:24:29.586Z,98697.84
2018-09-17T04:27:32.634Z,98698.45
2018-09-17T04:30:35.702Z,98701.96
2018-09-17T04:33:41.021Z,98696.91
2018-09-17T04:36:44.152Z,98696.09
2018-09-17T04:39:47.225Z,98695.32
2018-09-17T04:42:50.253Z,98696.34
2018-09-17T04:45:53.243Z,98699.60
2018-09-17T04:48:56.254Z,98698.79
2018-09-17T04:51:59.243Z,98700.70
2018-09-17T04:55:02.366Z,98699.92
2018-09-17T04:58:05.409Z,98702.05
2018-09-17T05:01:08.402Z,98700.17
2018-09-17T05:04:11.406Z,98698.02
2018-09-17T05:07:14.393Z,98699.39
2018-09-17T05:10:17.422Z,98701.55
2018-09-17T05:13:20.563Z,98702.34
2018-09-17T05:16:23.498Z,98705.03
2018-09-17T05:19:26.493Z,98703.44
2018-09-17T05:22:29.478Z,98705.31
2018-09-17T05:25:32.526Z,98708.50
2018-09-17T05:28:35.538Z,98704.49
2018-09-17T05:31:38.538Z,98705.81
2018-09-17T05:34:41.555Z,98707.44
2018-09-17T05:37:44.566Z,98708.47
2018-09-17T05:40:47.605Z,98715.76
2018-09-17T05:43:50.619Z,98711.15
2018-09-17T05:46:53.602Z,98717.02
2018-09-17T05:49:56.630Z,98716.98
2018-09-17T05:52:59.614Z,98713.76
2018-09-17T05:56:02.609Z,98708.03
2018-09-17T05:59:05.882Z,98707.11
2018-09-17T06:02:08.906Z,98715.60
2018-09-17T06:05:11.982Z,98710.31
2018-09-17T06:08:14.974Z,98716.23
2018-09-17T06:11:18.047Z,98708.23
2018-09-17T06:14:21.034Z,98707.00
2018-09-17T06:17:24.036Z,98707.78
2018-09-17T06:20:27.042Z,98707.88
2018-09-17T06:23:30.078Z,98706.86
2018-09-17T06:26:33.158Z,98706.96
2018-09-17T06:29:36.119Z,98704.39
2018-09-17T06:32:39.115Z,98708.33
2018-09-17T06:35:42.126Z,98706.83
2018-09-17T06:38:45.170Z,98700.64
2018-09-17T06:41:48.211Z,98702.80
2018-09-17T06:44:51.305Z,98701.45
2018-09-17T06:47:54.314Z,98700.56
2018-09-17T06:50:57.367Z,98701.72
2018-09-17T06:54:00.399Z,98695.84
2018-09-17T06:57:03.491Z,98688.11
2018-09-17T07:00:06.605Z,98691.76
2018-09-17T07:03:09.634Z,98684.17
2018-09-17T07:06:12.684Z,98690.91
2018-09-17T07:09:15.714Z,98695.97
2018-09-17T07:12:18.753Z,98691.48
2018-09-17T07:15:21.782Z,98703.59
2018-09-17T07:18:24.785Z,98706.23
2018-09-17T07:21:27.813Z,98716.52
2018-09-17T07:24:30.828Z,98708.78
2018-09-17T07:27:33.858Z,98713.66
2018-09-17T07:30:36.909Z,98713.05
2018-09-17T07:33:39.928Z,98713.66
2018-09-17T07:36:42.980Z,98712.25
2018-09-17T07:39:45.990Z,98711.59
2018-09-17T07:42:49.028Z,98706.69
2018-09-17T07:45:52.029Z,98718.05
2018-09-17T07:48:55.019Z,98715.66
2018-09-17T07:51:58.056Z,98706.59
2018-09-17T07:55:01.034Z,98714.05
2018-09-17T07:58:04.197Z,98716.22
2018-09-17T08:01:07.309Z,98716.14
2018-09-17T08:04:10.318Z,98719.09
2018-09-17T08:07:13.330Z,98707.47
2018-09-17T08:10:19.454Z,98701.22
2018-09-17T08:13:22.454Z,98701.45
2018-09-17T08:16:25.542Z,98705.56
2018-09-17T08:19:28.526Z,98698.70
2018-09-17T08:22:31.534Z,98704.17
2018-09-17T08:25:34.568Z,98700.79
2018-09-17T08:28:37.691Z,98702.19
2018-09-17T08:31:40.698Z,98697.48
2018-09-17T08:34:43.709Z,98692.80
2018-09-17T08:37:46.727Z,98693.30
2018-09-17T08:40:49.747Z,98703.72
2018-09-17T08:43:52.740Z,98700.19
2018-09-17T08:46:55.746Z,98700.28
2018-09-17T08:49:58.746Z,98691.52
2018-09-17T08:53:01.846Z,98685.36
2018-09-17T08:56:10.770Z,98683.43
2018-09-17T08:59:19.386Z,98679.45
2018-09-17T09:02:28.188Z,98688.06
2018-09-17T09:05:34.587Z,98683.88
2018-09-17T09:08:37.586Z,98687.73
2018-09-17T09:11:46.217Z,98676.87
2018-09-17T09:14:53.780Z,98671.81
2018-09-17T09:17:56.771Z,98666.78
2018-09-17T09:20:59.767Z,98667.38
2018-09-17T09:24:02.803Z,98664.20
2018-09-17T09:27:05.832Z,98657.54
2018-09-17T09:30:08.877Z,98652.34
2018-09-17T09:33:11.902Z,98650.05
2018-09-17T09:36:14.933Z,98655.80
2018-09-17T09:39:17.957Z,98648.03
2018-09-17T09:42:20.950Z,98646.19
2018-09-17T09:45:23.982Z,98644.98
2018-09-17T09:48:27.014Z,98643.91
2018-09-17T09:51:30.014Z,98646.47
2018-09-17T09:54:33.021Z,98638.97
2018-09-17T09:57:36.013Z,98643.47
2018-09-17T10:00:44.766Z,98635.28
2018-09-17T10:03:52.442Z,98635.14
2018-09-17T10:06:55.434Z,98635.12
2018-09-17T10:10:04.011Z,98631.00
2018-09-17T10:13:12.616Z,98622.89
2018-09-17T10:16:17.058Z,98627.55
2018-09-17T10:19:22.793Z,98622.37
2018-09-17T10:22:25.777Z,98621.41
2018-09-17T10:25:28.801Z,98620.52
2018-09-17T10:28:31.790Z,98618.41
2018-09-17T10:31:34.809Z,98616.53
2018-09-17T10:34:37.823Z,98613.36
2018-09-17T10:37:40.814Z,98610.31
2018-09-17T10:40:43.854Z,98602.72
2018-09-17T10:43:46.862Z,98599.72
2018-09-17T10:46:49.910Z,98596.59
2018-09-17T10:49:52.902Z,98591.94
2018-09-17T10:52:55.912Z,98588.47
2018-09-17T10:55:58.922Z,98591.20
2018-09-17T10:59:01.918Z,98586.94
2018-09-17T11:02:04.974Z,98582.67
2018-09-17T11:05:07.998Z,98587.16
2018-09-17T11:08:11.029Z,98582.80
2018-09-17T11:11:14.031Z,98580.97
2018-09-17T11:14:17.026Z,98578.12
2018-09-17T11:17:20.111Z,98571.94
2018-09-17T11:20:23.070Z,98573.02
2018-09-17T11:23:26.081Z,98560.98
2018-09-17T11:26:29.090Z,98564.02
2018-09-17T11:29:32.091Z,98563.20
2018-09-17T11:32:35.095Z,98559.35
2018-09-17T11:35:38.138Z,98554.14
2018-09-17T11:38:41.181Z,98544.44
2018-09-17T11:41:44.231Z,98538.53
2018-09-17T11:44:47.253Z,98536.64
2018-09-17T11:47:50.282Z,98534.61
2018-09-17T11:50:53.350Z,98534.25
2018-09-17T11:53:56.422Z,98528.75
2018-09-17T11:56:59.439Z,98519.55
2018-09-17T12:00:02.537Z,98524.73
2018-09-17T12:04:09.786Z,98513.33
2018-09-17T12:07:18.498Z,98510.19
2018-09-17T12:10:21.512Z,98507.02
2018-09-17T12:13:24.570Z,98502.82
2018-09-17T12:16:27.615Z,98501.09
2018-09-17T12:19:30.688Z,98494.98
2018-09-17T12:22:33.721Z,98495.98
2018-09-17T12:25:36.789Z,98494.59
2018-09-17T12:28:39.845Z,98489.11
2018-09-17T12:31:42.915Z,98489.64
2018-09-17T12:34:45.974Z,98481.56
2018-09-17T12:37:49.063Z,98485.03
2018-09-17T12:40:52.113Z,98474.28
2018-09-17T12:43:55.217Z,98478.59
2018-09-17T12:46:58.245Z,98472.88
2018-09-17T12:50:01.257Z,98459.73
2018-09-17T12:53:04.302Z,98461.44
2018-09-17T12:56:07.328Z,98446.75
2018-09-17T12:59:10.366Z,98444.78
2018-09-17T13:02:13.502Z,98442.69
2018-09-17T13:05:16.545Z,98441.48
2018-09-17T13:08:19.614Z,98437.13
2018-09-17T13:11:22.687Z,98432.52
2018-09-17T13:14:25.714Z,98426.83
2018-09-17T13:17:28.761Z,98425.11
2018-09-17T13:20:31.761Z,98417.73
2018-09-17T13:23:34.803Z,98410.41
2018-09-17T13:26:38.242Z,98419.09
2018-09-17T13:29:41.266Z,98418.11
2018-09-17T13:32:44.288Z,98412.77
2018-09-17T13:35:47.319Z,98416.17
2018-09-17T13:38:50.362Z,98414.56
2018-09-17T13:41:53.385Z,98410.81
2018-09-17T13:44:56.445Z,98407.26
2018-09-17T13:47:59.564Z,98399.28
2018-09-17T13:51:02.573Z,98395.69
2018-09-17T13:54:05.597Z,98392.14
2018-09-17T13:57:08.637Z,98395.84
2018-09-17T14:00:11.709Z,98387.67
2018-09-17T14:03:14.785Z,98394.14
2018-09-17T14:06:17.795Z,98380.75
2018-09-17T14:09:20.829Z,98381.56
2018-09-17T14:12:23.862Z,98380.82
2018-09-17T14:15:26.927Z,98375.14
2018-09-17T14:18:30.413Z,98368.81
2018-09-17T14:21:33.434Z,98363.28
2018-09-17T14:24:36.485Z,98363.89
2018-09-17T14:27:39.659Z,98359.94
2018-09-17T14:30:42.664Z,98362.53
2018-09-17T14:33:45.992Z,98364.52
2018-09-17T14:36:49.019Z,98359.18
2018-09-17T14:39:52.078Z,98352.27
2018-09-17T14:42:55.087Z,98349.52
2018-09-17T14:45:58.124Z,98343.74
2018-09-17T14:49:01.154Z,98341.96
2018-09-17T14:52:04.221Z,98337.60
2018-09-17T14:55:07.193Z,98335.75
2018-09-17T14:58:10.894Z,98337.24
2018-09-17T15:01:13.934Z,98339.38
2018-09-17T15:04:16.998Z,98337.88
2018-09-17T15:07:19.960Z,98326.48
2018-09-17T15:10:23.020Z,98325.97
2018-09-17T15:13:26.014Z,98330.05
2018-09-17T15:16:29.084Z,98319.76
2018-09-17T15:19:32.046Z,98326.03
2018-09-17T15:22:35.069Z,98322.25
2018-09-17T15:25:38.066Z,98323.91
2018-09-17T15:28:41.161Z,98320.31
2018-09-17T15:31:44.158Z,98317.64
2018-09-17T15:34:47.204Z,98313.47
2018-09-17T15:37:50.730Z,98313.00
2018-09-17T15:40:53.917Z,98309.06
2018-09-17T15:43:57.157Z,98310.85
2018-09-17T15:47:00.252Z,98307.28
2018-09-17T15:50:03.287Z,98296.14
2018-09-17T15:53:06.311Z,98296.36
2018-09-17T15:56:09.330Z,98294.14
2018-09-17T15:59:12.339Z,98295.06
2018-09-17T16:02:15.432Z,98284.39
2018-09-17T16:05:18.454Z,98290.29
2018-09-17T16:08:21.449Z,98293.13
2018-09-17T16:11:24.533Z,98289.50
2018-09-17T16:14:27.573Z,98293.58
2018-09-17T16:17:30.594Z,98293.19
2018-09-17T16:20:33.680Z,98290.49
2018-09-17T16:23:36.610Z,98290.53
2018-09-17T16:26:39.622Z,98296.16
2018-09-17T16:29:42.705Z,98294.77
2018-09-17T16:32:45.690Z,98302.94
2018-09-17T16:35:48.745Z,98300.75
2018-09-17T16:38:51.790Z,98295.39
2018-09-17T16:41:54.837Z,98292.91
2018-09-17T16:44:57.859Z,98291.73
2018-09-17T16:48:00.910Z,98293.41
2018-09-17T16:51:04.178Z,98292.78
2018-09-17T16:54:07.947Z,98290.91
2018-09-17T16:57:11.111Z,98285.42
2018-09-17T17:00:14.210Z,98287.38
2018-09-17T17:03:17.286Z,98288.88
2018-09-17T17:06:20.331Z,98284.72
2018-09-17T17:09:23.353Z,98283.20
2018-09-17T17:12:26.402Z,98279.20
2018-09-17T17:15:29.458Z,98284.82
2018-09-17T17:18:32.517Z,98284.67
2018-09-17T17:21:37.819Z,98291.54
2018-09-17T17:24:42.331Z,98283.31
2018-09-17T17:27:45.547Z,98276.33
2018-09-17T17:30:48.784Z,98282.50
2018-09-17T17:33:52.517Z,98281.17
2018-09-17T17:37:00.606Z,98278.13
2018-09-17T17:40:04.876Z,98281.59
2018-09-17T17:43:08.112Z,98283.34
2018-09-17T17:46:11.425Z,98286.01
2018-09-17T17:49:14.415Z,98290.79
2018-09-17T17:52:17.708Z,98299.13
2018-09-17T17:55:20.764Z,98297.19
2018-09-17T17:58:23.963Z,98302.20
2018-09-17T18:01:27.529Z,98303.21
2018-09-17T18:04:30.522Z,98310.16
2018-09-17T18:07:34.126Z,98313.11
2018-09-17T18:10:37.285Z,98309.44
2018-09-17T18:13:40.419Z,98313.83
2018-09-17T18:16:43.494Z,98314.59
2018-09-17T18:19:46.587Z,98313.09
2018-09-17T18:22:49.631Z,98317.48
2018-09-17T18:25:52.840Z,98316.62
2018-09-17T18:28:56.151Z,98316.68
2018-09-17T18:32:00.647Z,98318.05
2018-09-17T18:35:04.811Z,98312.00
2018-09-17T18:38:08.591Z,98312.19
2018-09-17T18:41:14.019Z,98312.97
2018-09-17T18:58:07.688Z,98321.39
2018-09-17T19:01:12.671Z,98327.23
2018-09-17T19:04:17.170Z,98326.66
2018-09-17T19:07:22.657Z,98330.44
2018-09-17T19:10:29.906Z,98332.06
2018-09-17T19:13:35.473Z,98326.48
2018-09-17T19:16:55.612Z,98321.31
2018-09-17T19:20:00.048Z,98323.97
2018-09-17T19:23:09.596Z,98323.42
2018-09-17T19:26:14.558Z,98319.13
2018-09-17T19:29:21.237Z,98313.26
2018-09-17T19:32:25.666Z,98316.27
2018-09-17T19:35:31.247Z,98318.63
2018-09-17T19:38:40.782Z,98326.22
2018-09-17T19:41:45.357Z,98322.37
2018-09-17T19:44:54.880Z,98323.73
2018-09-17T19:47:59.576Z,98319.75
2018-09-17T19:51:19.919Z,98324.22
2018-09-17T19:57:44.536Z,98328.67
2018-09-17T20:00:49.848Z,98330.49
2018-09-17T20:03:55.147Z,98336.00
2018-09-17T20:07:02.467Z,98334.09
2018-09-17T20:10:09.141Z,98338.63
2018-09-17T20:13:14.043Z,98336.62
2018-09-17T20:16:19.176Z,98335.59
2018-09-17T20:19:24.318Z,98328.23
2018-09-17T20:22:29.287Z,98328.52
2018-09-17T20:25:33.802Z,98329.88
2018-09-17T20:28:39.361Z,98323.87
2018-09-17T20:31:50.284Z,98323.33
2018-09-17T20:34:56.048Z,98330.20
2018-09-17T20:38:10.308Z,98324.29
2018-09-17T20:41:14.818Z,98327.88
2018-09-17T20:44:19.250Z,98325.69
2018-09-17T20:47:23.803Z,98323.53
2018-09-17T20:53:45.411Z,98323.04
2018-09-17T20:56:55.222Z,98318.09
2018-09-17T21:00:00.772Z,98311.20
2018-09-17T21:03:05.238Z,98309.30
2018-09-17T21:06:09.681Z,98307.74
2018-09-17T21:09:14.108Z,98312.27
2018-09-17T21:12:19.780Z,98318.90
2018-09-17T21:15:24.514Z,98310.39
2018-09-17T21:18:33.228Z,98305.84
2018-09-17T21:21:37.797Z,98303.34
2018-09-17T21:24:44.762Z,98303.97
2018-09-17T21:27:49.305Z,98306.19
2018-09-17T21:30:53.867Z,98302.56
2018-09-17T21:33:58.305Z,98305.52
2018-09-17T21:37:02.790Z,98302.20
2018-09-17T21:40:07.335Z,98303.19
2018-09-17T21:43:11.874Z,98303.47
2018-09-17T21:46:16.374Z,98300.69
2018-09-17T21:49:21.491Z,98295.30
2018-09-17T21:52:25.935Z,98298.74
2018-09-17T21:55:30.434Z,98293.41
2018-09-17T21:58:34.927Z,98302.68
2018-09-17T22:01:39.318Z,98304.34
2018-09-17T22:04:43.840Z,98302.19
2018-09-17T22:07:48.330Z,98295.50
2018-09-17T22:10:52.889Z,98298.80
2018-09-17T22:13:57.378Z,98294.06
2018-09-17T22:17:01.928Z,98292.22
2018-09-17T22:20:06.416Z,98283.61
2018-09-17T22:23:11.045Z,98286.94
2018-09-17T22:26:15.482Z,98286.27
2018-09-17T22:29:19.904Z,98289.88
2018-09-17T22:32:24.367Z,98288.03
2018-09-17T22:35:28.895Z,98287.98
2018-09-17T22:38:33.398Z,98288.08
2018-09-17T22:41:38.103Z,98287.11
2018-09-17T22:44:42.530Z,98285.63
2018-09-17T22:47:46.990Z,98284.87
2018-09-17T22:50:51.442Z,98284.49
2018-09-17T22:53:55.889Z,98283.36
2018-09-17T22:57:00.342Z,98284.85
2018-09-17T23:00:05.109Z,98287.25
2018-09-17T23:03:09.577Z,98288.89
2018-09-17T23:06:14.014Z,98288.89
2018-09-17T23:09:18.467Z,98288.44
2018-09-17T23:12:22.981Z,98282.17
2018-09-17T23:15:27.421Z,98284.11
2018-09-17T23:18:31.911Z,98279.98
2018-09-17T23:21:36.358Z,98278.99
2018-09-17T23:24:40.880Z,98274.05
2018-09-17T23:27:45.392Z,98285.03
2018-09-17T23:30:49.911Z,98279.84
2018-09-17T23:33:54.380Z,98280.97
2018-09-17T23:36:58.881Z,98281.83
2018-09-17T23:40:03.377Z,98280.28
2018-09-17T23:43:07.905Z,98279.67
2018-09-17T23:46:12.355Z,98276.39
2018-09-17T23:49:16.807Z,98273.73
2018-09-17T23:52:21.305Z,98274.77
2018-09-17T23:55:26.035Z,98277.78
2018-09-17T23:58:30.472Z,98280.64
